createdAt,value
2023-04-23T00:00:36.371Z,994.3
2023-04-23T00:01:50.836Z,994.3
2023-04-23T00:03:05.304Z,994.3
2023-04-23T00:04:19.777Z,994.3
2023-04-23T00:05:34.291Z,994.3
2023-04-23T00:06:48.771Z,994.3
2023-04-23T00:08:03.235Z,994.3
2023-04-23T00:09:19.000Z,994.2
2023-04-23T00:10:32.111Z,994.2
2023-04-23T00:11:46.580Z,994.2
2023-04-23T00:13:01.043Z,994.2
2023-04-23T00:14:15.514Z,994.2
2023-04-23T00:15:29.111Z,994.2
2023-04-23T00:16:43.619Z,994.2
2023-04-23T00:17:58.045Z,994.2
2023-04-23T00:19:12.560Z,994.2
2023-04-23T00:20:26.980Z,994.2
2023-04-23T00:21:41.447Z,994.2
2023-04-23T00:22:55.926Z,994.1
2023-04-23T00:24:10.392Z,994.1
2023-04-23T00:25:24.852Z,994.1
2023-04-23T00:27:53.781Z,994.1
2023-04-23T00:29:08.243Z,994.1
2023-04-23T00:30:22.729Z,994.1
2023-04-23T00:31:37.192Z,994.1
2023-04-23T00:32:51.649Z,994.1
2023-04-23T00:34:07.000Z,994.1
2023-04-23T00:35:22.000Z,994.1
2023-04-23T00:36:34.228Z,994.1
2023-04-23T00:37:48.647Z,994.1
2023-04-23T00:39:03.114Z,994.1
2023-04-23T00:40:17.578Z,994.1
2023-04-23T00:41:32.048Z,994.1
2023-04-23T00:42:46.508Z,994.1
2023-04-23T00:44:02.000Z,994.1
2023-04-23T00:45:15.444Z,994.1
2023-04-23T00:46:29.924Z,994.1
2023-04-23T00:47:44.392Z,994.1
2023-04-23T00:48:58.904Z,994.1
2023-04-23T00:50:13.367Z,994.1
2023-04-23T00:52:42.250Z,994.1
2023-04-23T00:53:56.735Z,994.1
2023-04-23T00:55:10.359Z,994.1
2023-04-23T00:56:24.826Z,994.1
2023-04-23T00:57:39.241Z,994.1
2023-04-23T00:58:53.000Z,994.1
2023-04-23T01:00:08.229Z,994.1
2023-04-23T01:01:22.697Z,994.1
2023-04-23T01:02:37.164Z,994.1
2023-04-23T01:03:51.593Z,994.1
2023-04-23T01:05:06.099Z,994.1
2023-04-23T01:06:20.522Z,994.1
2023-04-23T01:07:35.034Z,994.1
2023-04-23T01:08:49.501Z,994.1
2023-04-23T01:10:03.979Z,994
2023-04-23T01:11:17.514Z,994
2023-04-23T01:12:32.030Z,994
2023-04-23T01:13:46.458Z,994
2023-04-23T01:15:00.971Z,994
2023-04-23T01:16:15.378Z,994
2023-04-23T01:17:29.897Z,994
2023-04-23T01:18:44.314Z,994
2023-04-23T01:19:58.780Z,994
2023-04-23T01:21:13.245Z,994
2023-04-23T01:22:27.723Z,994
2023-04-23T01:23:44.000Z,994
2023-04-23T01:24:56.702Z,994
2023-04-23T01:26:11.128Z,994
2023-04-23T01:27:24.770Z,994
2023-04-23T01:28:41.000Z,994
2023-04-23T01:29:55.000Z,994
2023-04-23T01:31:08.160Z,994
2023-04-23T01:32:22.594Z,994
2023-04-23T01:33:38.000Z,994
2023-04-23T01:34:50.638Z,994
2023-04-23T01:36:05.114Z,994
2023-04-23T01:37:19.571Z,994
2023-04-23T01:38:34.044Z,994
2023-04-23T01:39:48.575Z,994
2023-04-23T01:41:03.038Z,994
2023-04-23T01:42:17.507Z,993.9
2023-04-23T01:43:31.905Z,993.9
2023-04-23T01:44:46.432Z,993.9
2023-04-23T01:46:00.839Z,993.9
2023-04-23T01:47:15.367Z,993.9
2023-04-23T01:48:29.839Z,993.9
2023-04-23T01:49:44.299Z,993.9
2023-04-23T01:50:58.772Z,993.9
2023-04-23T01:52:13.235Z,993.9
2023-04-23T01:53:29.000Z,993.9
2023-04-23T01:54:41.237Z,993.9
2023-04-23T01:55:55.771Z,993.9
2023-04-23T01:57:10.182Z,993.9
2023-04-23T01:58:24.712Z,993.9
2023-04-23T01:59:39.176Z,993.9
2023-04-23T02:00:53.574Z,993.9
2023-04-23T02:02:08.109Z,993.8
2023-04-23T02:03:22.579Z,993.8
2023-04-23T02:04:36.978Z,993.8
2023-04-23T02:05:51.454Z,993.8
2023-04-23T02:07:05.968Z,993.8
2023-04-23T02:08:20.387Z,993.8
2023-04-23T02:09:34.847Z,993.8
2023-04-23T02:10:49.313Z,993.8
2023-04-23T02:12:03.789Z,993.8
2023-04-23T02:13:18.265Z,993.7
2023-04-23T02:14:32.720Z,993.7
2023-04-23T02:15:47.203Z,993.7
2023-04-23T02:17:01.658Z,993.7
2023-04-23T02:18:17.000Z,993.7
2023-04-23T02:19:29.712Z,993.7
2023-04-23T02:20:44.190Z,993.7
2023-04-23T02:21:58.653Z,993.7
2023-04-23T02:23:13.114Z,993.7
2023-04-23T02:24:27.580Z,993.7
2023-04-23T02:25:42.055Z,993.7
2023-04-23T02:26:56.515Z,993.7
2023-04-23T02:28:10.983Z,993.7
2023-04-23T02:29:25.456Z,993.7
2023-04-23T02:30:39.933Z,993.7
2023-04-23T02:31:54.384Z,993.7
2023-04-23T02:33:08.864Z,993.7
2023-04-23T02:34:23.321Z,993.7
2023-04-23T02:35:37.785Z,993.6
2023-04-23T02:36:52.257Z,993.6
2023-04-23T02:38:08.000Z,993.6
2023-04-23T02:39:21.197Z,993.6
2023-04-23T02:40:34.779Z,993.6
2023-04-23T02:41:49.267Z,993.6
2023-04-23T02:43:03.721Z,993.6
2023-04-23T02:44:18.180Z,993.6
2023-04-23T02:45:32.654Z,993.6
2023-04-23T02:46:47.118Z,993.6
2023-04-23T02:48:01.584Z,993.6
2023-04-23T02:49:16.054Z,993.5
2023-04-23T02:50:30.538Z,993.5
2023-04-23T02:51:45.000Z,993.5
2023-04-23T02:52:59.468Z,993.5
2023-04-23T02:54:13.937Z,993.5
2023-04-23T02:55:28.412Z,993.5
2023-04-23T02:56:42.862Z,993.4
2023-04-23T02:57:57.336Z,993.4
2023-04-23T02:59:10.920Z,993.4
2023-04-23T03:00:25.402Z,993.4
2023-04-23T03:01:39.862Z,993.4
2023-04-23T03:02:56.000Z,993.4
2023-04-23T03:04:08.802Z,993.5
2023-04-23T03:05:23.256Z,993.5
2023-04-23T03:06:37.723Z,993.5
2023-04-23T03:07:54.000Z,993.5
2023-04-23T03:09:06.665Z,993.4
2023-04-23T03:10:21.146Z,993.4
2023-04-23T03:11:35.593Z,993.5
2023-04-23T03:12:50.069Z,993.5
2023-04-23T03:14:04.543Z,993.5
2023-04-23T03:15:19.004Z,993.5
2023-04-23T03:16:33.477Z,993.5
2023-04-23T03:17:47.931Z,993.5
2023-04-23T03:19:01.535Z,993.5
2023-04-23T03:22:44.936Z,993.6
2023-04-23T03:23:59.408Z,993.6
2023-04-23T03:25:13.877Z,993.6
2023-04-23T03:26:28.350Z,993.6
2023-04-23T03:27:44.000Z,993.6
2023-04-23T03:28:57.268Z,993.6
2023-04-23T03:30:11.729Z,993.6
2023-04-23T03:31:26.200Z,993.6
2023-04-23T03:32:42.000Z,993.6
2023-04-23T03:33:55.140Z,993.6
2023-04-23T03:35:08.722Z,993.6
2023-04-23T03:36:23.205Z,993.6
2023-04-23T03:37:37.659Z,993.6
2023-04-23T03:38:52.142Z,993.6
2023-04-23T03:40:06.549Z,993.6
2023-04-23T03:41:20.966Z,993.6
2023-04-23T03:42:35.389Z,993.5
2023-04-23T03:43:49.794Z,993.5
2023-04-23T03:45:04.196Z,993.5
2023-04-23T03:46:18.612Z,993.5
2023-04-23T03:47:33.035Z,993.5
2023-04-23T03:48:47.441Z,993.4
2023-04-23T03:50:01.864Z,993.4
2023-04-23T03:51:16.272Z,993.4
2023-04-23T03:52:30.686Z,993.4
2023-04-23T03:53:44.212Z,993.4
2023-04-23T03:54:58.623Z,993.4
2023-04-23T03:56:13.046Z,993.4
2023-04-23T03:57:29.000Z,993.5
2023-04-23T03:58:41.869Z,993.5
2023-04-23T03:59:56.281Z,993.5
2023-04-23T04:01:10.695Z,993.5
2023-04-23T04:02:27.000Z,993.5
2023-04-23T04:03:39.527Z,993.4
2023-04-23T04:06:08.367Z,993.4
2023-04-23T04:07:22.762Z,993.4
2023-04-23T04:08:37.175Z,993.4
2023-04-23T04:11:06.002Z,993.4
2023-04-23T04:12:20.430Z,993.4
2023-04-23T04:13:34.830Z,993.4
2023-04-23T04:14:49.254Z,993.4
2023-04-23T04:16:03.669Z,993.5
2023-04-23T04:17:20.000Z,993.5
2023-04-23T04:18:32.495Z,993.5
2023-04-23T04:19:46.905Z,993.5
2023-04-23T04:21:01.313Z,993.5
2023-04-23T04:22:15.732Z,993.5
2023-04-23T04:23:30.150Z,993.5
2023-04-23T04:24:44.566Z,993.5
2023-04-23T04:25:58.978Z,993.5
2023-04-23T04:27:13.403Z,993.5
2023-04-23T04:28:27.812Z,993.5
2023-04-23T04:29:42.224Z,993.5
2023-04-23T04:30:56.638Z,993.5
2023-04-23T04:32:11.042Z,993.6
2023-04-23T04:33:26.000Z,993.6
2023-04-23T04:34:39.007Z,993.6
2023-04-23T04:35:53.402Z,993.6
2023-04-23T04:37:07.825Z,993.6
2023-04-23T04:38:22.230Z,993.6
2023-04-23T04:39:36.646Z,993.6
2023-04-23T04:40:51.063Z,993.6
2023-04-23T04:42:05.466Z,993.6
2023-04-23T04:43:19.891Z,993.6
2023-04-23T04:44:34.311Z,993.6
2023-04-23T04:45:48.708Z,993.6
2023-04-23T04:47:03.135Z,993.6
2023-04-23T04:48:17.540Z,993.6
2023-04-23T04:50:46.361Z,993.6
2023-04-23T04:52:00.784Z,993.6
2023-04-23T04:53:15.202Z,993.6
2023-04-23T04:54:29.627Z,993.6
2023-04-23T04:55:44.024Z,993.6
2023-04-23T04:56:58.446Z,993.6
2023-04-23T04:58:11.978Z,993.6
2023-04-23T04:59:26.395Z,993.6
2023-04-23T05:00:40.810Z,993.7
2023-04-23T05:01:55.209Z,993.7
2023-04-23T05:03:09.631Z,993.7
2023-04-23T05:04:24.041Z,993.7
2023-04-23T05:05:38.448Z,993.7
2023-04-23T05:06:52.880Z,993.7
2023-04-23T05:08:07.285Z,993.7
2023-04-23T05:10:36.110Z,993.8
2023-04-23T05:11:52.000Z,993.8
2023-04-23T05:13:04.930Z,993.8
2023-04-23T05:15:33.765Z,993.7
2023-04-23T05:16:48.171Z,993.7
2023-04-23T05:18:01.718Z,993.7
2023-04-23T05:20:30.548Z,993.7
2023-04-23T05:21:44.954Z,993.7
2023-04-23T05:22:58.502Z,993.8
2023-04-23T05:24:12.921Z,993.8
2023-04-23T05:25:27.352Z,993.8
2023-04-23T05:26:41.745Z,993.8
2023-04-23T05:27:55.301Z,993.8
2023-04-23T05:30:24.122Z,993.8
2023-04-23T05:31:38.520Z,993.8
2023-04-23T05:32:52.952Z,993.9
2023-04-23T05:34:07.354Z,993.9
2023-04-23T05:35:21.780Z,993.9
2023-04-23T05:36:38.000Z,993.9
2023-04-23T05:37:50.601Z,993.9
2023-04-23T05:39:05.011Z,993.9
2023-04-23T05:40:19.430Z,993.9
2023-04-23T05:41:33.831Z,993.9
2023-04-23T05:42:48.254Z,993.9
2023-04-23T05:44:01.797Z,993.9
2023-04-23T05:45:16.198Z,993.9
2023-04-23T05:46:30.615Z,994
2023-04-23T05:47:45.025Z,994
2023-04-23T05:48:59.442Z,994
2023-04-23T05:50:13.859Z,994
2023-04-23T05:51:28.267Z,994
2023-04-23T05:52:41.835Z,994
2023-04-23T05:53:55.364Z,994
2023-04-23T05:55:09.777Z,994.1
2023-04-23T05:56:24.198Z,994.1
2023-04-23T05:57:38.608Z,994.1
2023-04-23T05:58:53.018Z,994.1
2023-04-23T06:00:07.437Z,994.1
2023-04-23T06:01:23.000Z,994.1
2023-04-23T06:02:38.000Z,994.1
2023-04-23T06:03:50.672Z,994.1
2023-04-23T06:05:05.077Z,994.1
2023-04-23T06:06:19.503Z,994.1
2023-04-23T06:07:33.917Z,994.1
2023-04-23T06:08:48.329Z,994.2
2023-04-23T06:10:02.743Z,994.2
2023-04-23T06:11:16.281Z,994.2
2023-04-23T06:12:30.697Z,994.1
2023-04-23T06:13:45.110Z,994.2
2023-04-23T06:14:59.519Z,994.2
2023-04-23T06:16:15.000Z,994.2
2023-04-23T06:17:28.349Z,994.2
2023-04-23T06:19:57.165Z,994.2
2023-04-23T06:21:11.575Z,994.2
2023-04-23T06:22:26.005Z,994.2
2023-04-23T06:23:40.419Z,994.2
2023-04-23T06:24:54.819Z,994.2
2023-04-23T06:26:09.233Z,994.2
2023-04-23T06:27:23.657Z,994.2
2023-04-23T06:28:37.175Z,994.2
2023-04-23T06:29:53.000Z,994.3
2023-04-23T06:31:06.019Z,994.2
2023-04-23T06:32:20.427Z,994.3
2023-04-23T06:33:34.856Z,994.2
2023-04-23T06:34:49.247Z,994.2
2023-04-23T06:36:03.671Z,994.3
2023-04-23T06:37:18.078Z,994.3
2023-04-23T06:38:32.499Z,994.2
2023-04-23T06:39:46.914Z,994.2
2023-04-23T06:41:01.326Z,994.3
2023-04-23T06:42:15.727Z,994.3
2023-04-23T06:43:30.156Z,994.3
2023-04-23T06:44:44.552Z,994.3
2023-04-23T06:45:58.108Z,994.3
2023-04-23T06:47:12.509Z,994.3
2023-04-23T06:48:26.919Z,994.3
2023-04-23T06:49:41.331Z,994.3
2023-04-23T06:50:55.744Z,994.4
2023-04-23T06:52:10.160Z,994.3
2023-04-23T06:53:24.575Z,994.4
2023-04-23T06:54:38.994Z,994.4
2023-04-23T06:55:53.404Z,994.4
2023-04-23T06:57:07.812Z,994.4
2023-04-23T06:58:22.240Z,994.4
2023-04-23T06:59:36.637Z,994.4
2023-04-23T07:00:51.055Z,994.4
2023-04-23T07:02:05.471Z,994.4
2023-04-23T07:03:19.009Z,994.4
2023-04-23T07:04:33.412Z,994.4
2023-04-23T07:05:47.829Z,994.3
2023-04-23T07:07:02.241Z,994.3
2023-04-23T07:09:31.084Z,994.3
2023-04-23T07:10:45.484Z,994.3
2023-04-23T07:11:59.896Z,994.3
2023-04-23T07:13:14.324Z,994.3
2023-04-23T07:14:28.725Z,994.3
2023-04-23T07:15:43.146Z,994.3
2023-04-23T07:16:57.551Z,994.3
2023-04-23T07:19:26.391Z,994.3
2023-04-23T07:20:40.805Z,994.3
2023-04-23T07:21:55.201Z,994.3
2023-04-23T07:23:08.754Z,994.3
2023-04-23T07:24:23.152Z,994.3
2023-04-23T07:25:37.574Z,994.3
2023-04-23T07:26:51.981Z,994.4
2023-04-23T07:28:06.404Z,994.4
2023-04-23T07:29:20.808Z,994.4
2023-04-23T07:30:35.224Z,994.4
2023-04-23T07:31:49.638Z,994.4
2023-04-23T07:33:04.044Z,994.4
2023-04-23T07:34:18.458Z,994.4
2023-04-23T07:35:32.886Z,994.4
2023-04-23T07:36:47.301Z,994.4
2023-04-23T07:38:01.711Z,994.4
2023-04-23T07:39:15.246Z,994.4
2023-04-23T07:40:29.669Z,994.4
2023-04-23T07:41:44.063Z,994.5
2023-04-23T07:42:57.626Z,994.5
2023-04-23T07:44:11.155Z,994.5
2023-04-23T07:45:25.574Z,994.5
2023-04-23T07:47:54.415Z,994.5
2023-04-23T07:49:08.815Z,994.5
2023-04-23T07:50:23.248Z,994.5
2023-04-23T07:51:37.641Z,994.6
2023-04-23T07:52:52.046Z,994.6
2023-04-23T07:54:06.462Z,994.6
2023-04-23T07:55:20.873Z,994.6
2023-04-23T07:56:35.308Z,994.6
2023-04-23T07:57:49.701Z,994.6
2023-04-23T07:59:04.138Z,994.6
2023-04-23T08:00:18.531Z,994.6
2023-04-23T08:01:32.000Z,994.6
2023-04-23T08:02:47.371Z,994.6
2023-04-23T08:04:02.000Z,994.6
2023-04-23T08:05:15.315Z,994.6
2023-04-23T08:06:29.721Z,994.6
2023-04-23T08:07:44.143Z,994.7
2023-04-23T08:09:00.000Z,994.7
2023-04-23T08:10:12.971Z,994.7
2023-04-23T08:12:43.000Z,994.7
2023-04-23T08:13:58.000Z,994.7
2023-04-23T08:15:10.625Z,994.7
2023-04-23T08:16:25.037Z,994.7
2023-04-23T08:17:39.455Z,994.7
2023-04-23T08:18:53.855Z,994.7
2023-04-23T08:20:07.409Z,994.7
2023-04-23T08:22:36.226Z,994.8
2023-04-23T08:23:50.640Z,994.8
2023-04-23T08:25:05.043Z,994.8
2023-04-23T08:26:19.454Z,994.7
2023-04-23T08:27:33.885Z,994.7
2023-04-23T08:28:48.302Z,994.7
2023-04-23T08:30:02.718Z,994.7
2023-04-23T08:31:17.106Z,994.7
2023-04-23T08:32:31.539Z,994.8
2023-04-23T08:33:45.943Z,994.8
2023-04-23T08:35:00.349Z,994.8
2023-04-23T08:37:29.201Z,994.8
2023-04-23T08:38:42.732Z,994.8
2023-04-23T08:39:57.149Z,994.8
2023-04-23T08:42:25.985Z,994.8
2023-04-23T08:43:40.000Z,994.8
2023-04-23T08:44:54.813Z,994.8
2023-04-23T08:46:09.225Z,994.8
2023-04-23T08:47:23.649Z,994.8
2023-04-23T08:48:39.000Z,994.9
2023-04-23T08:49:51.586Z,994.9
2023-04-23T08:52:20.415Z,994.9
2023-04-23T08:53:34.833Z,994.9
2023-04-23T08:54:49.261Z,994.9
2023-04-23T08:56:03.649Z,994.9
2023-04-23T08:57:20.000Z,994.9
2023-04-23T08:58:31.611Z,994.9
2023-04-23T08:59:45.160Z,995
2023-04-23T09:00:59.568Z,995
2023-04-23T09:02:13.983Z,995
2023-04-23T09:03:28.388Z,995
2023-04-23T09:04:42.806Z,995
2023-04-23T09:05:57.215Z,995
2023-04-23T09:07:11.637Z,995
2023-04-23T09:08:26.069Z,995
2023-04-23T09:09:40.473Z,995
2023-04-23T09:10:54.882Z,995
2023-04-23T09:12:09.281Z,995
2023-04-23T09:13:22.848Z,995
2023-04-23T09:14:36.386Z,995.1
2023-04-23T09:15:50.813Z,995
2023-04-23T09:17:05.204Z,995.1
2023-04-23T09:18:19.625Z,995.1
2023-04-23T09:19:34.053Z,995
2023-04-23T09:22:02.872Z,995.1
2023-04-23T09:23:17.290Z,995.1
2023-04-23T09:24:31.715Z,995
2023-04-23T09:25:46.136Z,995
2023-04-23T09:27:00.523Z,995.1
2023-04-23T09:28:14.937Z,995.1
2023-04-23T09:29:29.340Z,995.1
2023-04-23T09:30:43.754Z,995.1
2023-04-23T09:33:12.588Z,995.1
2023-04-23T09:34:26.149Z,995.1
2023-04-23T09:35:40.588Z,995.1
2023-04-23T09:36:54.992Z,995.1
2023-04-23T09:38:09.372Z,995.1
2023-04-23T09:39:22.939Z,995.1
2023-04-23T09:40:37.357Z,995
2023-04-23T09:41:51.732Z,995
2023-04-23T09:43:06.164Z,995
2023-04-23T09:44:20.598Z,995
2023-04-23T09:45:34.986Z,995
2023-04-23T09:46:49.396Z,995
2023-04-23T09:48:03.837Z,995
2023-04-23T09:49:17.362Z,995
2023-04-23T09:51:46.199Z,994.9
2023-04-23T09:53:00.603Z,994.9
2023-04-23T09:54:14.160Z,995
2023-04-23T09:55:28.573Z,995
2023-04-23T09:56:42.971Z,995
2023-04-23T09:57:57.373Z,994.9
2023-04-23T09:59:11.791Z,995
2023-04-23T10:01:40.652Z,995
2023-04-23T10:02:55.028Z,995
2023-04-23T10:04:09.486Z,994.9
2023-04-23T10:05:23.890Z,994.9
2023-04-23T10:06:38.270Z,995
2023-04-23T10:07:52.722Z,995
2023-04-23T10:09:07.131Z,994.9
2023-04-23T10:10:20.642Z,994.9
2023-04-23T10:11:35.089Z,994.9
2023-04-23T10:12:49.461Z,994.9
2023-04-23T10:14:03.869Z,994.9
2023-04-23T10:15:18.285Z,994.9
2023-04-23T10:16:32.709Z,995
2023-04-23T10:17:46.265Z,995
2023-04-23T10:18:59.828Z,994.9
2023-04-23T10:20:14.233Z,995
2023-04-23T10:21:28.635Z,995
2023-04-23T10:22:43.044Z,995
2023-04-23T10:23:57.446Z,994.9
2023-04-23T10:25:11.874Z,995
2023-04-23T10:26:26.310Z,995
2023-04-23T10:27:40.720Z,995
2023-04-23T10:28:54.253Z,995
2023-04-23T10:31:22.233Z,995
2023-04-23T10:32:36.618Z,994.9
2023-04-23T10:33:51.035Z,994.9
2023-04-23T10:35:05.440Z,994.9
2023-04-23T10:36:19.848Z,994.9
2023-04-23T10:37:34.267Z,994.8
2023-04-23T10:38:48.676Z,994.8
2023-04-23T10:41:17.500Z,994.8
2023-04-23T10:42:31.954Z,994.8
2023-04-23T10:43:46.337Z,994.8
2023-04-23T10:46:15.194Z,994.8
2023-04-23T10:47:29.714Z,994.8
2023-04-23T10:48:44.130Z,994.8
2023-04-23T10:51:12.070Z,994.9
2023-04-23T10:52:26.526Z,994.8
2023-04-23T10:53:40.911Z,994.9
2023-04-23T10:54:55.317Z,994.9
2023-04-23T10:56:09.734Z,994.9
2023-04-23T10:57:24.139Z,994.9
2023-04-23T10:58:38.600Z,994.8
2023-04-23T11:02:21.843Z,994.7
2023-04-23T11:03:36.226Z,994.8
2023-04-23T11:06:04.198Z,994.8
2023-04-23T11:07:18.607Z,994.8
2023-04-23T11:08:33.032Z,994.8
2023-04-23T11:11:00.989Z,994.8
2023-04-23T11:12:15.419Z,994.8
2023-04-23T11:13:29.001Z,994.8
2023-04-23T11:15:57.799Z,994.8
2023-04-23T11:17:12.228Z,994.8
2023-04-23T11:18:26.633Z,994.8
2023-04-23T11:20:55.455Z,994.8
2023-04-23T11:22:09.003Z,994.8
2023-04-23T11:23:23.401Z,994.8
2023-04-23T11:24:37.808Z,994.8
2023-04-23T11:25:52.243Z,994.7
2023-04-23T11:27:06.633Z,994.7
2023-04-23T11:28:21.053Z,994.7
2023-04-23T11:30:49.888Z,994.7
2023-04-23T11:32:04.325Z,994.7
2023-04-23T11:33:18.711Z,994.7
2023-04-23T11:34:33.147Z,994.7
2023-04-23T11:35:47.541Z,994.7
2023-04-23T11:37:01.976Z,994.7
2023-04-23T11:38:16.370Z,994.7
2023-04-23T11:40:45.219Z,994.7
2023-04-23T11:41:58.744Z,994.7
2023-04-23T11:43:13.138Z,994.7
2023-04-23T11:44:27.563Z,994.7
2023-04-23T11:45:41.963Z,994.7
2023-04-23T11:46:56.381Z,994.7
2023-04-23T11:48:10.788Z,994.7
2023-04-23T11:49:25.203Z,994.7
2023-04-23T11:50:39.646Z,994.6
2023-04-23T11:51:54.065Z,994.7
2023-04-23T11:53:08.451Z,994.6
2023-04-23T11:54:22.872Z,994.6
2023-04-23T11:55:37.267Z,994.6
2023-04-23T11:56:51.690Z,994.7
2023-04-23T11:58:06.131Z,994.7
2023-04-23T11:59:19.651Z,994.6
2023-04-23T12:00:33.202Z,994.6
2023-04-23T12:01:47.618Z,994.7
2023-04-23T12:03:02.015Z,994.6
2023-04-23T12:04:16.443Z,994.7
2023-04-23T12:05:32.000Z,994.6
2023-04-23T12:06:45.264Z,994.6
2023-04-23T12:07:59.673Z,994.6
2023-04-23T12:09:16.000Z,994.6
2023-04-23T12:10:28.522Z,994.6
2023-04-23T12:11:42.908Z,994.6
2023-04-23T12:14:10.885Z,994.6
2023-04-23T12:15:25.304Z,994.6
2023-04-23T12:16:38.857Z,994.6
2023-04-23T12:19:07.685Z,994.5
2023-04-23T12:20:21.221Z,994.5
2023-04-23T12:21:34.747Z,994.5
2023-04-23T12:22:49.199Z,994.5
2023-04-23T12:24:03.604Z,994.5
2023-04-23T12:25:20.000Z,994.4
2023-04-23T12:26:32.398Z,994.5
2023-04-23T12:27:46.845Z,994.5
2023-04-23T12:29:03.000Z,994.5
2023-04-23T12:30:15.682Z,994.5
2023-04-23T12:31:30.089Z,994.5
2023-04-23T12:32:44.496Z,994.5
2023-04-23T12:33:58.888Z,994.5
2023-04-23T12:35:12.465Z,994.5
2023-04-23T12:36:28.000Z,994.5
2023-04-23T12:37:40.419Z,994.5
2023-04-23T12:38:54.799Z,994.4
2023-04-23T12:40:09.230Z,994.4
2023-04-23T12:41:23.637Z,994.4
2023-04-23T12:43:52.484Z,994.3
2023-04-23T12:45:06.870Z,994.3
2023-04-23T12:46:21.286Z,994.3
2023-04-23T12:48:50.108Z,994.2
2023-04-23T12:50:04.526Z,994.2
2023-04-23T12:51:18.973Z,994.2
2023-04-23T12:53:46.936Z,994.2
2023-04-23T12:55:01.339Z,994.2
2023-04-23T12:56:14.905Z,994.1
2023-04-23T12:57:29.323Z,994.2
2023-04-23T12:58:43.705Z,994.2
2023-04-23T12:59:58.116Z,994.2
2023-04-23T13:01:12.559Z,994.1
2023-04-23T13:02:26.108Z,994.2
2023-04-23T13:03:40.509Z,994.1
2023-04-23T13:04:57.000Z,994.1
2023-04-23T13:06:09.335Z,994.1
2023-04-23T13:07:23.759Z,994.1
2023-04-23T13:08:40.000Z,994.1
2023-04-23T13:09:52.581Z,994.1
2023-04-23T13:11:06.103Z,994
2023-04-23T13:12:19.642Z,994
2023-04-23T13:13:36.000Z,994
2023-04-23T13:14:50.000Z,994
2023-04-23T13:16:02.888Z,993.9
2023-04-23T13:17:17.335Z,993.9
2023-04-23T13:18:31.706Z,993.9
2023-04-23T13:19:46.152Z,993.9
2023-04-23T13:21:00.533Z,993.8
2023-04-23T13:22:14.964Z,993.8
2023-04-23T13:23:29.389Z,993.8
2023-04-23T13:24:42.952Z,993.8
2023-04-23T13:25:58.000Z,993.8
2023-04-23T13:28:25.318Z,993.8
2023-04-23T13:29:39.692Z,993.8
2023-04-23T13:30:54.103Z,993.8
2023-04-23T13:32:08.532Z,993.8
2023-04-23T13:33:25.000Z,993.7
2023-04-23T13:34:37.380Z,993.7
2023-04-23T13:35:51.791Z,993.7
2023-04-23T13:37:06.202Z,993.7
2023-04-23T13:38:20.618Z,993.6
2023-04-23T13:39:35.045Z,993.6
2023-04-23T13:40:49.430Z,993.6
2023-04-23T13:42:02.956Z,993.6
2023-04-23T13:43:17.383Z,993.6
2023-04-23T13:44:33.000Z,993.6
2023-04-23T13:45:46.206Z,993.6
2023-04-23T13:48:15.043Z,993.6
2023-04-23T13:49:28.608Z,993.5
2023-04-23T13:50:42.993Z,993.5
2023-04-23T13:51:56.567Z,993.5
2023-04-23T13:53:10.961Z,993.4
2023-04-23T13:54:25.367Z,993.4
2023-04-23T13:55:39.798Z,993.4
2023-04-23T13:56:54.219Z,993.4
2023-04-23T13:58:08.622Z,993.4
2023-04-23T13:59:23.011Z,993.4
2023-04-23T14:00:39.000Z,993.4
2023-04-23T14:01:51.851Z,993.4
2023-04-23T14:03:06.272Z,993.3
2023-04-23T14:04:20.664Z,993.3
2023-04-23T14:05:34.245Z,993.3
2023-04-23T14:06:48.653Z,993.3
2023-04-23T14:08:03.097Z,993.3
2023-04-23T14:09:16.602Z,993.2
2023-04-23T14:10:31.045Z,993.2
2023-04-23T14:11:45.435Z,993.2
2023-04-23T14:12:59.879Z,993.2
2023-04-23T14:14:14.266Z,993.2
2023-04-23T14:15:28.702Z,993.2
2023-04-23T14:16:43.091Z,993.2
2023-04-23T14:17:57.505Z,993.2
2023-04-23T14:19:14.000Z,993.1
2023-04-23T14:20:26.339Z,993.1
2023-04-23T14:21:40.769Z,993.1
2023-04-23T14:22:55.164Z,993.1
2023-04-23T14:24:09.571Z,993.1
2023-04-23T14:25:23.990Z,993.1
2023-04-23T14:26:39.000Z,993.1
2023-04-23T14:27:51.947Z,993
2023-04-23T14:29:08.000Z,993.1
2023-04-23T14:31:37.000Z,993.1
2023-04-23T14:32:49.590Z,993
2023-04-23T14:34:04.035Z,993
2023-04-23T14:35:18.439Z,993
2023-04-23T14:36:32.840Z,993
2023-04-23T14:37:47.247Z,993
2023-04-23T14:39:01.665Z,993
2023-04-23T14:40:16.093Z,992.9
2023-04-23T14:41:30.504Z,992.9
2023-04-23T14:42:44.045Z,992.9
2023-04-23T14:43:58.438Z,992.8
2023-04-23T14:45:12.883Z,992.8
2023-04-23T14:46:27.266Z,992.7
2023-04-23T14:47:41.708Z,992.7
2023-04-23T14:48:58.000Z,992.7
2023-04-23T14:50:10.535Z,992.7
2023-04-23T14:51:27.000Z,992.7
2023-04-23T14:52:39.364Z,992.6
2023-04-23T14:53:55.000Z,992.6
2023-04-23T14:55:08.185Z,992.6
2023-04-23T14:56:22.575Z,992.6
2023-04-23T14:57:37.008Z,992.5
2023-04-23T14:58:51.400Z,992.5
2023-04-23T15:01:19.350Z,992.5
2023-04-23T15:02:33.762Z,992.5
2023-04-23T15:03:48.201Z,992.5
2023-04-23T15:05:02.608Z,992.5
2023-04-23T15:06:17.006Z,992.4
2023-04-23T15:07:31.418Z,992.4
2023-04-23T15:08:45.845Z,992.4
2023-04-23T15:11:14.659Z,992.4
2023-04-23T15:12:29.092Z,992.4
2023-04-23T15:13:43.506Z,992.4
2023-04-23T15:14:57.932Z,992.4
2023-04-23T15:16:12.319Z,992.4
2023-04-23T15:17:25.853Z,992.4
2023-04-23T15:18:40.284Z,992.4
2023-04-23T15:19:54.691Z,992.4
2023-04-23T15:21:09.102Z,992.4
2023-04-23T15:22:23.510Z,992.3
2023-04-23T15:23:37.940Z,992.3
2023-04-23T15:26:06.753Z,992.2
2023-04-23T15:27:21.192Z,992.2
2023-04-23T15:28:35.593Z,992.2
2023-04-23T15:29:50.010Z,992.2
2023-04-23T15:31:04.418Z,992.2
2023-04-23T15:32:18.832Z,992.2
2023-04-23T15:33:33.237Z,992.2
2023-04-23T15:34:47.784Z,992.1
2023-04-23T15:36:04.000Z,992.2
2023-04-23T15:37:16.608Z,992.2
2023-04-23T15:38:33.000Z,992.1
2023-04-23T15:39:45.443Z,992.1
2023-04-23T15:40:59.846Z,992.1
2023-04-23T15:42:14.284Z,992.1
2023-04-23T15:43:28.684Z,992.2
2023-04-23T15:45:59.000Z,992.2
2023-04-23T15:47:11.925Z,992.2
2023-04-23T15:48:26.338Z,992.2
2023-04-23T15:50:55.164Z,992.1
2023-04-23T15:52:09.574Z,992.1
2023-04-23T15:53:24.114Z,992.1
2023-04-23T15:54:38.536Z,992.1
2023-04-23T15:55:52.939Z,992
2023-04-23T15:57:07.353Z,991.9
2023-04-23T15:58:21.763Z,991.9
2023-04-23T15:59:36.166Z,991.9
2023-04-23T16:00:50.593Z,991.9
2023-04-23T16:02:04.994Z,991.9
2023-04-23T16:03:21.000Z,991.9
2023-04-23T16:04:33.826Z,991.9
2023-04-23T16:05:48.245Z,991.9
2023-04-23T16:07:02.672Z,991.9
2023-04-23T16:08:17.078Z,991.9
2023-04-23T16:10:45.016Z,991.9
2023-04-23T16:11:58.585Z,991.8
2023-04-23T16:13:13.117Z,991.8
2023-04-23T16:14:27.527Z,991.8
2023-04-23T16:15:41.939Z,991.8
2023-04-23T16:16:56.373Z,991.7
2023-04-23T16:18:10.768Z,991.7
2023-04-23T16:19:25.184Z,991.6
2023-04-23T16:20:39.599Z,991.6
2023-04-23T16:21:54.022Z,991.6
2023-04-23T16:23:08.437Z,991.6
2023-04-23T16:24:22.851Z,991.5
2023-04-23T16:25:37.265Z,991.5
2023-04-23T16:26:51.668Z,991.5
2023-04-23T16:28:06.231Z,991.5
2023-04-23T16:29:20.653Z,991.5
2023-04-23T16:30:34.182Z,991.5
2023-04-23T16:31:48.588Z,991.6
2023-04-23T16:33:03.003Z,991.6
2023-04-23T16:35:31.831Z,991.6
2023-04-23T16:36:46.261Z,991.6
2023-04-23T16:38:00.666Z,991.6
2023-04-23T16:39:15.078Z,991.6
2023-04-23T16:40:29.484Z,991.6
2023-04-23T16:41:43.899Z,991.6
2023-04-23T16:42:58.317Z,991.6
2023-04-23T16:44:12.740Z,991.6
2023-04-23T16:45:27.144Z,991.6
2023-04-23T16:46:41.560Z,991.6
2023-04-23T16:47:55.970Z,991.6
2023-04-23T16:49:10.389Z,991.6
2023-04-23T16:50:26.000Z,991.6
2023-04-23T16:51:39.224Z,991.5
2023-04-23T16:52:53.618Z,991.5
2023-04-23T16:54:08.033Z,991.5
2023-04-23T16:55:24.000Z,991.5
2023-04-23T16:56:36.859Z,991.5
2023-04-23T16:57:51.289Z,991.5
2023-04-23T17:00:20.102Z,991.5
2023-04-23T17:01:33.643Z,991.5
2023-04-23T17:02:48.049Z,991.5
2023-04-23T17:04:02.481Z,991.5
2023-04-23T17:05:16.888Z,991.5
2023-04-23T17:06:31.297Z,991.5
2023-04-23T17:07:47.000Z,991.5
2023-04-23T17:09:00.129Z,991.5